createdAt,value
2019-06-08T00:01:51.091Z,16.20
2019-06-08T00:04:22.756Z,16.10
2019-06-08T00:06:53.242Z,16.10
2019-06-08T00:09:24.089Z,16.00
2019-06-08T00:11:54.602Z,15.90
2019-06-08T00:14:25.597Z,15.90
2019-06-08T00:16:56.143Z,15.80
2019-06-08T00:19:26.486Z,15.80
2019-06-08T00:21:56.983Z,15.80
2019-06-08T00:24:27.380Z,15.80
2019-06-08T00:26:57.887Z,15.70
2019-06-08T00:29:28.356Z,15.60
2019-06-08T00:31:58.843Z,15.50
2019-06-08T00:34:29.299Z,15.50
2019-06-08T00:36:59.784Z,15.40
2019-06-08T00:39:30.246Z,15.40
2019-06-08T00:42:00.715Z,15.40
2019-06-08T00:44:31.071Z,15.40
2019-06-08T00:47:01.551Z,15.40
2019-06-08T00:49:31.922Z,15.30
2019-06-08T00:52:02.334Z,15.30
2019-06-08T00:54:32.712Z,15.20
2019-06-08T00:57:03.095Z,15.20
2019-06-08T00:59:33.535Z,15.10
2019-06-08T01:02:04.094Z,15.10
2019-06-08T01:04:34.392Z,15.00
2019-06-08T01:07:04.841Z,15.00
2019-06-08T01:09:35.318Z,14.90
2019-06-08T01:12:06.007Z,14.90
2019-06-08T01:14:36.457Z,14.90
2019-06-08T01:17:06.808Z,14.90
2019-06-08T01:19:37.260Z,14.90
2019-06-08T01:22:07.758Z,14.90
2019-06-08T01:24:38.214Z,14.90
2019-06-08T01:27:08.516Z,14.90
2019-06-08T01:29:38.883Z,14.90
2019-06-08T01:32:09.150Z,14.80
2019-06-08T01:34:39.571Z,14.70
2019-06-08T01:37:09.979Z,14.70
2019-06-08T01:39:40.418Z,14.60
2019-06-08T01:42:10.788Z,14.60
2019-06-08T01:44:41.238Z,14.60
2019-06-08T01:47:11.695Z,14.60
2019-06-08T01:49:41.995Z,14.50
2019-06-08T01:52:12.387Z,14.50
2019-06-08T01:54:42.752Z,14.40
2019-06-08T01:57:13.099Z,14.40
2019-06-08T01:59:43.539Z,14.30
2019-06-08T02:02:13.884Z,14.30
2019-06-08T02:04:44.347Z,14.30
2019-06-08T02:07:14.728Z,14.20
2019-06-08T02:09:45.082Z,14.20
2019-06-08T02:12:15.365Z,14.20
2019-06-08T02:14:45.730Z,14.20
2019-06-08T02:17:16.263Z,14.20
2019-06-08T02:19:46.589Z,14.20
2019-06-08T02:22:17.034Z,14.10
2019-06-08T02:24:47.476Z,14.20
2019-06-08T02:27:17.839Z,14.10
2019-06-08T02:29:48.319Z,14.10
2019-06-08T02:32:18.688Z,14.00
2019-06-08T02:34:49.136Z,14.00
2019-06-08T02:37:19.619Z,13.90
2019-06-08T02:39:49.971Z,14.00
2019-06-08T02:42:20.463Z,13.90
2019-06-08T02:44:50.849Z,13.90
2019-06-08T02:47:21.295Z,13.90
2019-06-08T02:49:51.639Z,13.80
2019-06-08T02:52:22.044Z,13.80
2019-06-08T02:54:52.497Z,13.70
2019-06-08T02:57:24.549Z,13.70
2019-06-08T02:59:56.401Z,13.70
2019-06-08T03:02:29.675Z,13.70
2019-06-08T03:05:02.671Z,13.70
2019-06-08T03:07:36.888Z,13.80
2019-06-08T03:10:08.276Z,13.90
2019-06-08T03:12:42.208Z,13.90
2019-06-08T03:15:15.055Z,14.00
2019-06-08T03:17:45.455Z,13.90
2019-06-08T03:20:15.891Z,14.00
2019-06-08T03:22:46.267Z,14.00
2019-06-08T03:25:16.717Z,14.00
2019-06-08T03:27:47.189Z,14.10
2019-06-08T03:30:19.449Z,14.10
2019-06-08T03:32:55.582Z,14.10
2019-06-08T03:35:21.516Z,14.20
2019-06-08T03:37:51.884Z,14.20
2019-06-08T03:40:22.287Z,14.20
2019-06-08T03:42:53.288Z,14.30
2019-06-08T03:45:24.724Z,14.30
2019-06-08T03:47:55.195Z,14.30
2019-06-08T03:50:25.607Z,14.40
2019-06-08T03:52:55.952Z,14.40
2019-06-08T03:55:26.324Z,14.50
2019-06-08T03:57:56.762Z,14.60
2019-06-08T04:00:27.059Z,14.70
2019-06-08T04:02:57.403Z,14.90
2019-06-08T04:05:27.951Z,15.30
2019-06-08T04:07:58.412Z,15.70
2019-06-08T04:10:28.802Z,16.30
2019-06-08T04:12:59.236Z,16.80
2019-06-08T04:15:29.596Z,17.30
2019-06-08T04:17:59.938Z,17.80
2019-06-08T04:20:30.413Z,18.40
2019-06-08T04:23:00.779Z,18.90
2019-06-08T04:25:31.175Z,19.40
2019-06-08T04:28:01.570Z,20.00
2019-06-08T04:30:32.030Z,20.30
2019-06-08T04:33:02.375Z,20.70
2019-06-08T04:35:32.738Z,21.10
2019-06-08T04:38:03.225Z,21.40
2019-06-08T04:40:33.583Z,21.70
2019-06-08T04:43:04.046Z,21.80
2019-06-08T04:45:34.393Z,22.20
2019-06-08T04:48:09.139Z,22.50
2019-06-08T04:50:38.524Z,22.90
2019-06-08T04:53:08.955Z,23.20
2019-06-08T04:55:40.813Z,23.40
2019-06-08T04:58:11.344Z,23.70
2019-06-08T05:00:43.372Z,24.20
2019-06-08T05:03:13.718Z,24.40
2019-06-08T05:05:45.294Z,24.70
2019-06-08T05:08:15.905Z,25.00
2019-06-08T05:10:47.404Z,25.40
2019-06-08T05:13:18.014Z,25.40
2019-06-08T05:15:50.209Z,25.50
2019-06-08T05:18:20.585Z,25.70
2019-06-08T05:20:51.430Z,26.00
2019-06-08T05:23:22.120Z,26.40
2019-06-08T05:25:52.575Z,26.40
2019-06-08T05:28:22.962Z,26.30
2019-06-08T05:30:53.390Z,26.30
2019-06-08T05:33:23.680Z,26.70
2019-06-08T05:35:54.035Z,27.10
2019-06-08T05:38:24.514Z,27.30
2019-06-08T05:40:54.871Z,27.50
2019-06-08T05:43:25.362Z,27.90
2019-06-08T05:45:55.734Z,28.00
2019-06-08T05:48:26.204Z,27.80
2019-06-08T05:51:03.599Z,27.90
2019-06-08T05:53:28.543Z,28.00
2019-06-08T05:55:59.076Z,28.30
2019-06-08T05:58:29.455Z,28.60
2019-06-08T06:00:59.839Z,28.70
2019-06-08T06:03:30.298Z,29.00
2019-06-08T06:06:00.643Z,29.10
2019-06-08T06:08:31.012Z,29.40
2019-06-08T06:11:01.606Z,29.40
2019-06-08T06:13:31.995Z,29.80
2019-06-08T06:16:02.372Z,30.50
2019-06-08T06:18:32.751Z,31.10
2019-06-08T06:21:11.264Z,31.60
2019-06-08T06:23:35.082Z,31.60
2019-06-08T06:26:05.498Z,31.90
2019-06-08T06:28:35.809Z,31.50
2019-06-08T06:31:06.191Z,31.80
2019-06-08T06:33:36.648Z,32.00
2019-06-08T06:36:07.028Z,32.20
2019-06-08T06:38:37.387Z,32.40
2019-06-08T06:41:07.886Z,32.30
2019-06-08T06:43:38.324Z,32.70
2019-06-08T06:46:08.886Z,32.70
2019-06-08T06:48:39.274Z,32.70
2019-06-08T06:51:24.994Z,32.50
2019-06-08T06:53:42.781Z,32.20
2019-06-08T06:56:13.295Z,32.30
2019-06-08T06:58:45.019Z,32.30
2019-06-08T07:01:15.530Z,32.30
2019-06-08T07:03:46.086Z,32.40
2019-06-08T07:06:16.458Z,32.00
2019-06-08T07:08:48.164Z,32.30
2019-06-08T07:11:18.803Z,32.30
2019-06-08T07:13:49.196Z,32.60
2019-06-08T07:16:19.739Z,33.00
2019-06-08T07:18:50.270Z,32.90
2019-06-08T07:21:20.654Z,32.80
2019-06-08T07:23:51.521Z,32.90
2019-06-08T07:26:23.026Z,32.70
2019-06-08T07:28:54.038Z,32.90
2019-06-08T07:31:25.703Z,33.00
2019-06-08T07:33:56.134Z,32.90
2019-06-08T07:36:26.494Z,32.80
2019-06-08T07:38:56.944Z,32.60
2019-06-08T07:41:27.339Z,32.20
2019-06-08T07:43:58.522Z,32.10
2019-06-08T07:46:29.153Z,32.20
2019-06-08T07:48:59.511Z,32.00
2019-06-08T07:51:29.976Z,32.10
2019-06-08T07:54:00.455Z,31.90
2019-06-08T07:56:30.836Z,31.90
2019-06-08T07:59:01.295Z,32.10
2019-06-08T08:01:36.199Z,32.10
2019-06-08T08:04:03.627Z,32.00
2019-06-08T08:06:34.099Z,32.00
2019-06-08T08:09:05.917Z,31.70
2019-06-08T08:11:36.258Z,31.90
2019-06-08T08:14:06.734Z,31.90
2019-06-08T08:16:37.109Z,31.90
2019-06-08T08:19:07.603Z,32.00
2019-06-08T08:21:40.771Z,32.00
2019-06-08T08:24:10.205Z,31.80
2019-06-08T08:26:40.679Z,31.60
2019-06-08T08:29:11.037Z,31.30
2019-06-08T08:31:41.415Z,30.90
2019-06-08T08:34:12.023Z,30.70
2019-06-08T08:36:42.515Z,30.40
2019-06-08T08:39:12.975Z,30.30
2019-06-08T08:41:43.763Z,30.10
2019-06-08T08:44:14.503Z,29.80
2019-06-08T08:46:44.944Z,29.80
2019-06-08T08:49:15.319Z,29.80
2019-06-08T08:51:47.572Z,29.50
2019-06-08T08:54:18.419Z,29.50
2019-06-08T08:56:52.162Z,29.50
2019-06-08T08:59:20.910Z,29.40
2019-06-08T09:01:52.605Z,29.50
2019-06-08T09:04:23.349Z,29.50
2019-06-08T09:06:55.331Z,29.40
2019-06-08T09:09:28.694Z,29.10
2019-06-08T09:12:02.291Z,29.00
2019-06-08T09:14:29.752Z,28.80
2019-06-08T09:17:02.116Z,28.90
2019-06-08T09:19:32.263Z,28.90
2019-06-08T09:22:03.885Z,28.60
2019-06-08T09:24:34.585Z,28.40
2019-06-08T09:27:07.806Z,28.40
2019-06-08T09:29:38.886Z,28.20
2019-06-08T09:32:09.303Z,27.90
2019-06-08T09:34:39.683Z,27.60
2019-06-08T09:37:10.123Z,27.70
2019-06-08T09:39:40.516Z,27.50
2019-06-08T09:42:10.987Z,27.30
2019-06-08T09:44:41.348Z,27.20
2019-06-08T09:47:12.641Z,27.00
2019-06-08T09:49:43.294Z,26.90
2019-06-08T09:52:13.660Z,27.00
2019-06-08T09:54:44.232Z,27.20
2019-06-08T09:57:14.722Z,27.20
2019-06-08T09:59:45.191Z,27.10
2019-06-08T10:02:18.207Z,27.20
2019-06-08T10:04:48.371Z,27.40
2019-06-08T10:07:18.893Z,27.50
2019-06-08T10:09:50.118Z,27.60
2019-06-08T10:12:20.623Z,27.40
2019-06-08T10:14:50.994Z,27.30
2019-06-08T10:17:21.993Z,27.10
2019-06-08T10:19:52.413Z,27.00
2019-06-08T10:22:22.879Z,26.90
2019-06-08T10:24:55.305Z,26.90
2019-06-08T10:27:28.215Z,27.10
2019-06-08T10:30:00.013Z,27.20
2019-06-08T10:32:29.720Z,27.40
2019-06-08T10:35:02.296Z,27.30
2019-06-08T10:37:32.259Z,27.30
2019-06-08T10:40:05.443Z,27.10
2019-06-08T10:42:34.599Z,27.10
2019-06-08T10:45:10.389Z,27.10
2019-06-08T10:47:38.331Z,27.20
2019-06-08T10:50:14.931Z,27.20
2019-06-08T10:52:41.591Z,27.20
2019-06-08T10:55:12.660Z,27.20
2019-06-08T10:57:43.225Z,27.20
2019-06-08T11:00:20.803Z,27.20
2019-06-08T11:02:48.699Z,27.40
2019-06-08T11:05:18.296Z,27.60
2019-06-08T11:07:48.794Z,27.70
2019-06-08T11:10:19.631Z,27.70
2019-06-08T11:12:50.023Z,27.80
2019-06-08T11:15:20.470Z,28.00
2019-06-08T11:17:50.952Z,28.30
2019-06-08T11:20:21.299Z,28.50
2019-06-08T11:22:51.654Z,28.60
2019-06-08T11:25:22.000Z,28.50
2019-06-08T11:27:52.454Z,28.50
2019-06-08T11:30:26.792Z,28.70
2019-06-08T11:32:54.951Z,28.80
2019-06-08T11:35:25.326Z,28.70
2019-06-08T11:37:58.307Z,28.30
2019-06-08T11:40:27.963Z,28.00
2019-06-08T11:42:58.673Z,27.80
2019-06-08T11:45:30.320Z,27.80
2019-06-08T11:48:02.579Z,27.80
2019-06-08T11:50:41.508Z,27.80
2019-06-08T11:53:13.535Z,27.90
2019-06-08T11:55:43.177Z,28.10
2019-06-08T11:58:13.908Z,28.00
2019-06-08T12:01:01.822Z,27.90
2019-06-08T12:03:31.136Z,27.70
2019-06-08T12:06:02.191Z,27.60
2019-06-08T12:08:32.774Z,27.50
2019-06-08T12:11:04.251Z,27.40
2019-06-08T12:13:35.347Z,27.40
2019-06-08T12:16:09.298Z,27.50
2019-06-08T12:18:40.074Z,27.50
2019-06-08T12:21:11.327Z,27.50
2019-06-08T12:23:41.952Z,27.40
2019-06-08T12:26:12.343Z,27.40
2019-06-08T12:28:42.682Z,27.40
2019-06-08T12:31:17.345Z,27.20
2019-06-08T12:33:45.219Z,27.00
2019-06-08T12:36:17.044Z,26.80
2019-06-08T12:38:48.656Z,26.70
2019-06-08T12:41:19.366Z,26.80
2019-06-08T12:43:49.899Z,26.90
2019-06-08T12:46:21.574Z,27.00
2019-06-08T12:48:52.070Z,26.90
2019-06-08T12:51:22.454Z,26.80
2019-06-08T12:53:52.902Z,26.80
2019-06-08T12:56:24.148Z,26.80
2019-06-08T12:58:54.743Z,26.80
2019-06-08T13:01:25.167Z,26.70
2019-06-08T13:03:57.925Z,26.60
2019-06-08T13:06:28.286Z,26.60
2019-06-08T13:08:58.923Z,26.60
2019-06-08T13:11:29.652Z,26.60
2019-06-08T13:14:00.108Z,26.60
2019-06-08T13:16:30.652Z,26.70
2019-06-08T13:19:01.181Z,26.80
2019-06-08T13:21:35.296Z,26.80
2019-06-08T13:24:03.661Z,26.80
2019-06-08T13:26:34.019Z,26.70
2019-06-08T13:29:04.375Z,26.60
2019-06-08T13:31:34.831Z,26.60
2019-06-08T13:34:05.350Z,26.60
2019-06-08T13:36:35.883Z,26.50
2019-06-08T13:39:09.836Z,26.50
2019-06-08T13:41:39.051Z,26.40
2019-06-08T13:44:09.530Z,26.40
2019-06-08T13:46:39.986Z,26.50
2019-06-08T13:49:10.375Z,26.40
2019-06-08T13:51:40.846Z,26.30
2019-06-08T13:54:11.182Z,26.30
2019-06-08T13:56:41.695Z,26.30
2019-06-08T13:59:13.311Z,26.30
2019-06-08T14:01:44.026Z,26.20
2019-06-08T14:04:14.985Z,26.10
2019-06-08T14:06:45.671Z,26.00
2019-06-08T14:09:16.930Z,26.00
2019-06-08T14:11:48.150Z,26.00
2019-06-08T14:14:19.990Z,26.10
2019-06-08T14:16:50.695Z,26.00
2019-06-08T14:19:23.258Z,26.20
2019-06-08T14:21:53.355Z,26.20
2019-06-08T14:24:28.077Z,26.30
2019-06-08T14:26:58.289Z,26.30
2019-06-08T14:29:28.898Z,26.20
2019-06-08T14:32:00.041Z,26.20
2019-06-08T14:34:31.234Z,26.20
2019-06-08T14:37:01.732Z,26.20
2019-06-08T14:39:32.135Z,26.10
2019-06-08T14:42:02.535Z,26.10
2019-06-08T14:44:34.026Z,26.10
2019-06-08T14:47:16.590Z,26.00
2019-06-08T14:49:48.858Z,26.10
2019-06-08T14:52:21.899Z,26.30
2019-06-08T14:54:51.418Z,26.40
2019-06-08T14:57:21.870Z,26.40
2019-06-08T14:59:52.159Z,26.40
2019-06-08T15:02:23.474Z,26.30
2019-06-08T15:04:54.011Z,26.30
2019-06-08T15:07:26.129Z,26.10
2019-06-08T15:09:58.137Z,26.00
2019-06-08T15:12:30.108Z,25.90
2019-06-08T15:15:00.471Z,25.90
2019-06-08T15:17:32.115Z,25.80
2019-06-08T15:20:02.753Z,25.80
2019-06-08T15:22:33.263Z,25.60
2019-06-08T15:25:03.819Z,25.50
2019-06-08T15:27:34.297Z,25.50
2019-06-08T15:30:05.271Z,25.40
2019-06-08T15:32:38.559Z,25.30
2019-06-08T15:35:08.201Z,25.20
2019-06-08T15:37:40.850Z,25.10
2019-06-08T15:40:10.986Z,25.00
2019-06-08T15:42:41.346Z,24.90
2019-06-08T15:45:11.815Z,24.90
2019-06-08T15:47:42.083Z,24.90
2019-06-08T15:50:12.927Z,24.80
2019-06-08T15:52:43.491Z,24.80
2019-06-08T15:55:13.935Z,24.80
2019-06-08T15:57:44.302Z,24.80
2019-06-08T16:00:14.755Z,24.80
2019-06-08T16:02:45.138Z,24.80
2019-06-08T16:05:15.654Z,24.80
2019-06-08T16:07:46.035Z,24.70
2019-06-08T16:10:16.410Z,24.80
2019-06-08T16:12:46.930Z,24.70
2019-06-08T16:15:17.398Z,24.60
2019-06-08T16:17:47.847Z,24.60
2019-06-08T16:20:18.242Z,24.50
2019-06-08T16:22:48.583Z,24.40
2019-06-08T16:25:18.955Z,24.40
2019-06-08T16:27:49.298Z,24.30
2019-06-08T16:30:19.767Z,24.30
2019-06-08T16:32:50.165Z,24.20
2019-06-08T16:35:20.620Z,24.10
2019-06-08T16:37:50.914Z,24.00
2019-06-08T16:40:21.369Z,24.00
2019-06-08T16:42:51.679Z,24.00
2019-06-08T16:45:22.220Z,23.90
2019-06-08T16:47:52.574Z,23.90
2019-06-08T16:50:24.800Z,23.90
2019-06-08T16:52:55.094Z,23.80
2019-06-08T16:55:25.655Z,23.80
2019-06-08T16:57:56.107Z,23.70
2019-06-08T17:00:31.561Z,23.70
2019-06-08T17:02:58.618Z,23.60
2019-06-08T17:05:29.069Z,23.50
2019-06-08T17:07:59.512Z,23.50
2019-06-08T17:10:30.476Z,23.50
2019-06-08T17:13:00.946Z,23.40
2019-06-08T17:15:31.926Z,23.40
2019-06-08T17:18:02.499Z,23.40
2019-06-08T17:20:34.067Z,23.40
2019-06-08T17:23:04.635Z,23.30
2019-06-08T17:25:35.067Z,23.30
2019-06-08T17:28:05.654Z,23.20
2019-06-08T17:30:37.525Z,23.20
2019-06-08T17:33:08.679Z,23.20
2019-06-08T17:35:39.868Z,23.10
2019-06-08T17:38:10.589Z,23.10
2019-06-08T17:40:42.250Z,23.00
2019-06-08T17:43:12.895Z,23.00
2019-06-08T17:45:43.297Z,22.90
2019-06-08T17:48:13.714Z,23.00
2019-06-08T17:50:44.265Z,22.90
2019-06-08T17:53:14.715Z,22.90
2019-06-08T17:55:45.210Z,22.90
2019-06-08T17:58:15.546Z,22.90
2019-06-08T18:00:46.743Z,22.80
2019-06-08T18:03:17.370Z,22.80
2019-06-08T18:05:48.630Z,22.80
2019-06-08T18:08:19.287Z,22.80
2019-06-08T18:10:49.743Z,22.70
2019-06-08T18:13:20.293Z,22.70
2019-06-08T18:15:50.898Z,22.60
2019-06-08T18:18:21.283Z,22.50
2019-06-08T18:20:52.361Z,22.50
2019-06-08T18:23:22.718Z,22.50
2019-06-08T18:25:53.001Z,22.50
2019-06-08T18:28:23.361Z,22.40
2019-06-08T18:30:53.703Z,22.40
2019-06-08T18:33:24.082Z,22.30
2019-06-08T18:35:54.439Z,22.30
2019-06-08T18:38:27.269Z,22.20
2019-06-08T18:40:57.491Z,22.10
2019-06-08T18:43:28.132Z,22.10
2019-06-08T18:45:58.578Z,22.00
2019-06-08T18:48:28.969Z,22.00
2019-06-08T18:50:59.408Z,21.90
2019-06-08T18:53:29.758Z,21.90
2019-06-08T18:56:00.147Z,21.80
2019-06-08T18:58:30.606Z,21.80
2019-06-08T19:01:00.979Z,21.80
2019-06-08T19:03:31.427Z,21.70
2019-06-08T19:06:01.907Z,21.60
2019-06-08T19:08:32.682Z,21.60
2019-06-08T19:11:02.980Z,21.50
2019-06-08T19:13:33.465Z,21.50
2019-06-08T19:16:03.815Z,21.40
2019-06-08T19:18:34.198Z,21.40
2019-06-08T19:21:04.682Z,21.30
2019-06-08T19:23:37.464Z,21.20
2019-06-08T19:26:07.698Z,21.20
2019-06-08T19:28:44.951Z,21.10
2019-06-08T19:31:11.320Z,21.10
2019-06-08T19:33:42.259Z,21.00
2019-06-08T19:36:12.719Z,20.90
2019-06-08T19:38:43.074Z,20.80
2019-06-08T19:41:13.467Z,20.80
2019-06-08T19:43:47.718Z,20.70
2019-06-08T19:46:18.106Z,20.60
2019-06-08T19:48:54.331Z,20.60
2019-06-08T19:51:20.974Z,20.50
2019-06-08T19:53:54.897Z,20.40
2019-06-08T19:56:23.885Z,20.40
2019-06-08T19:59:01.812Z,20.30
2019-06-08T20:01:27.658Z,20.20
2019-06-08T20:04:01.310Z,20.10
2019-06-08T20:06:30.682Z,20.00
2019-06-08T20:09:01.167Z,19.90
2019-06-08T20:11:31.610Z,19.70
2019-06-08T20:14:02.007Z,19.60
2019-06-08T20:16:32.495Z,19.40
2019-06-08T20:19:03.110Z,19.30
2019-06-08T20:21:33.490Z,19.20
2019-06-08T20:24:04.033Z,19.10
2019-06-08T20:26:34.510Z,19.00
2019-06-08T20:29:13.568Z,18.80
2019-06-08T20:31:38.478Z,18.70
2019-06-08T20:34:08.983Z,18.70
2019-06-08T20:36:39.426Z,18.60
2019-06-08T20:39:09.838Z,18.50
2019-06-08T20:41:40.215Z,18.40
2019-06-08T20:44:10.626Z,18.30
2019-06-08T20:46:41.854Z,18.20
2019-06-08T20:49:12.851Z,18.10
2019-06-08T20:51:44.230Z,18.10
2019-06-08T20:54:17.122Z,18.00
2019-06-08T20:56:47.887Z,17.90
2019-06-08T20:59:29.924Z,17.80
2019-06-08T21:01:52.662Z,17.80
2019-06-08T21:04:24.409Z,17.70
2019-06-08T21:06:57.216Z,17.60
2019-06-08T21:09:27.824Z,17.60
2019-06-08T21:11:58.878Z,17.60
2019-06-08T21:14:29.629Z,17.50
2019-06-08T21:17:00.044Z,17.50
2019-06-08T21:19:30.521Z,17.50
2019-06-08T21:22:00.916Z,17.60
2019-06-08T21:24:31.371Z,17.50
2019-06-08T21:27:01.784Z,17.50
2019-06-08T21:29:47.118Z,17.50
2019-06-08T21:32:04.216Z,17.50
2019-06-08T21:34:34.554Z,17.50
2019-06-08T21:37:04.943Z,17.50
2019-06-08T21:39:36.690Z,17.50
2019-06-08T21:42:07.904Z,17.50
2019-06-08T21:44:38.575Z,17.50
2019-06-08T21:47:08.950Z,17.50
2019-06-08T21:49:39.348Z,17.40
2019-06-08T21:52:09.693Z,17.30
2019-06-08T21:54:40.142Z,17.20
2019-06-08T21:57:10.418Z,17.10
2019-06-08T21:59:40.787Z,17.00
2019-06-08T22:02:11.218Z,16.90
2019-06-08T22:04:41.496Z,16.90
2019-06-08T22:07:11.838Z,16.90
2019-06-08T22:09:50.255Z,16.90
2019-06-08T22:12:20.642Z,16.90
2019-06-08T22:14:51.329Z,16.90
2019-06-08T22:17:22.939Z,16.90
2019-06-08T22:19:53.603Z,16.90
2019-06-08T22:22:23.958Z,17.00
2019-06-08T22:24:55.398Z,17.00
2019-06-08T22:27:27.226Z,16.90
2019-06-08T22:29:58.548Z,16.80
2019-06-08T22:32:29.802Z,16.70
2019-06-08T22:35:01.662Z,16.60
2019-06-08T22:37:32.219Z,16.50
2019-06-08T22:40:03.628Z,16.50
2019-06-08T22:42:34.115Z,16.50
2019-06-08T22:45:04.651Z,16.50
2019-06-08T22:47:35.119Z,16.50
2019-06-08T22:50:07.909Z,16.50
2019-06-08T22:52:38.050Z,16.50
2019-06-08T22:55:10.986Z,16.50
2019-06-08T22:57:40.739Z,16.50
2019-06-08T23:00:17.207Z,16.60
2019-06-08T23:02:44.243Z,16.60
2019-06-08T23:05:14.590Z,16.60
2019-06-08T23:07:44.954Z,16.60
2019-06-08T23:10:17.421Z,16.60
2019-06-08T23:12:47.370Z,16.60
2019-06-08T23:15:18.312Z,16.70
2019-06-08T23:17:48.901Z,16.70
2019-06-08T23:20:19.331Z,16.80
2019-06-08T23:22:50.580Z,16.80
2019-06-08T23:25:21.026Z,16.70
2019-06-08T23:27:51.397Z,16.70
2019-06-08T23:30:21.827Z,16.80
2019-06-08T23:32:52.272Z,16.80
2019-06-08T23:35:22.706Z,16.70
2019-06-08T23:37:52.982Z,16.60
2019-06-08T23:40:23.378Z,16.50
2019-06-08T23:42:53.733Z,16.50
2019-06-08T23:45:24.174Z,16.50
2019-06-08T23:47:57.009Z,16.50
2019-06-08T23:50:27.262Z,16.50
2019-06-08T23:52:59.030Z,16.50
2019-06-08T23:55:29.931Z,16.50
2019-06-08T23:58:01.429Z,16.50
